createdAt,value
2019-05-29T00:00:01.527Z,2.77
2019-05-29T00:00:34.014Z,3.33
2019-05-29T00:01:04.391Z,3.70
2019-05-29T00:01:33.769Z,3.40
2019-05-29T00:02:02.579Z,3.12
2019-05-29T00:02:30.907Z,3.92
2019-05-29T00:02:59.756Z,3.62
2019-05-29T00:03:29.079Z,3.95
2019-05-29T00:03:58.023Z,3.67
2019-05-29T00:04:26.261Z,3.70
2019-05-29T00:04:56.154Z,3.50
2019-05-29T00:05:25.401Z,3.72
2019-05-29T00:05:54.378Z,3.40
2019-05-29T00:06:23.242Z,3.60
2019-05-29T00:06:52.076Z,4.00
2019-05-29T00:07:22.169Z,3.60
2019-05-29T00:07:51.008Z,3.62
2019-05-29T00:08:19.777Z,3.12
2019-05-29T00:08:48.831Z,3.20
2019-05-29T00:09:18.455Z,3.62
2019-05-29T00:09:47.407Z,3.87
2019-05-29T00:10:15.997Z,3.40
2019-05-29T00:10:45.313Z,3.87
2019-05-29T00:11:14.428Z,4.15
2019-05-29T00:11:43.266Z,3.65
2019-05-29T00:12:17.534Z,4.12
2019-05-29T00:12:42.436Z,3.50
2019-05-29T00:13:12.357Z,3.75
2019-05-29T00:13:41.534Z,3.95
2019-05-29T00:14:25.015Z,3.70
2019-05-29T00:14:40.382Z,4.03
2019-05-29T00:15:10.365Z,3.98
2019-05-29T00:15:39.567Z,3.72
2019-05-29T00:16:08.307Z,3.60
2019-05-29T00:16:37.462Z,3.55
2019-05-29T00:17:06.419Z,3.33
2019-05-29T00:17:35.279Z,3.40
2019-05-29T00:18:03.551Z,3.45
2019-05-29T00:18:32.715Z,3.85
2019-05-29T00:19:01.719Z,3.70
2019-05-29T00:19:31.004Z,3.37
2019-05-29T00:19:59.563Z,3.67
2019-05-29T00:20:30.193Z,3.67
2019-05-29T00:20:59.184Z,3.35
2019-05-29T00:21:27.743Z,3.62
2019-05-29T00:21:56.136Z,3.30
2019-05-29T00:22:25.283Z,3.98
2019-05-29T00:22:54.130Z,3.70
2019-05-29T00:23:22.957Z,3.42
2019-05-29T00:23:51.271Z,3.40
2019-05-29T00:24:21.119Z,3.70
2019-05-29T00:24:50.088Z,3.58
2019-05-29T00:25:19.158Z,3.67
2019-05-29T00:25:47.537Z,3.35
2019-05-29T00:26:16.610Z,3.52
2019-05-29T00:26:45.983Z,3.83
2019-05-29T00:27:15.640Z,3.40
2019-05-29T00:27:44.375Z,3.52
2019-05-29T00:28:14.756Z,3.75
2019-05-29T00:28:44.997Z,3.52
2019-05-29T00:29:13.887Z,3.77
2019-05-29T00:29:43.276Z,3.42
2019-05-29T00:30:13.498Z,3.72
2019-05-29T00:30:42.581Z,3.55
2019-05-29T00:31:12.180Z,3.62
2019-05-29T00:31:41.411Z,3.30
2019-05-29T00:32:11.973Z,3.95
2019-05-29T00:32:41.408Z,3.72
2019-05-29T00:33:10.263Z,3.50
2019-05-29T00:33:38.993Z,3.62
2019-05-29T00:34:07.561Z,3.27
2019-05-29T00:34:36.457Z,3.42
2019-05-29T00:35:08.316Z,3.40
2019-05-29T00:35:37.256Z,3.55
2019-05-29T00:36:06.451Z,3.70
2019-05-29T00:36:35.637Z,3.62
2019-05-29T00:37:04.458Z,3.55
2019-05-29T00:37:32.726Z,3.58
2019-05-29T00:38:01.684Z,3.55
2019-05-29T00:38:30.579Z,3.70
2019-05-29T00:38:59.404Z,3.85
2019-05-29T00:39:28.063Z,4.03
2019-05-29T00:39:56.618Z,3.65
2019-05-29T00:40:25.656Z,3.40
2019-05-29T00:40:54.536Z,3.58
2019-05-29T00:41:23.271Z,3.80
2019-05-29T00:41:52.257Z,4.20
2019-05-29T00:42:21.071Z,3.45
2019-05-29T00:42:49.903Z,3.92
2019-05-29T00:43:18.405Z,3.45
2019-05-29T00:43:47.504Z,3.80
2019-05-29T00:44:17.460Z,3.65
2019-05-29T00:44:47.965Z,4.03
2019-05-29T00:45:17.715Z,3.47
2019-05-29T00:45:47.376Z,3.20
2019-05-29T00:46:22.152Z,3.67
2019-05-29T00:46:51.174Z,3.60
2019-05-29T00:47:19.502Z,3.80
2019-05-29T00:47:49.808Z,3.40
2019-05-29T00:48:18.950Z,3.65
2019-05-29T00:48:48.916Z,4.05
2019-05-29T00:49:18.124Z,3.80
2019-05-29T00:49:47.580Z,3.77
2019-05-29T00:50:16.408Z,3.58
2019-05-29T00:50:45.681Z,3.33
2019-05-29T00:51:14.916Z,3.95
2019-05-29T00:51:44.038Z,4.12
2019-05-29T00:52:14.199Z,4.12
2019-05-29T00:52:43.586Z,3.83
2019-05-29T00:53:12.231Z,3.80
2019-05-29T00:53:42.355Z,4.00
2019-05-29T00:54:12.484Z,3.87
2019-05-29T00:54:41.736Z,3.75
2019-05-29T00:55:10.536Z,4.47
2019-05-29T00:55:39.385Z,4.25
2019-05-29T00:56:08.540Z,3.62
2019-05-29T00:56:38.117Z,3.60
2019-05-29T00:57:08.677Z,4.10
2019-05-29T00:57:37.592Z,3.87
2019-05-29T00:58:06.798Z,4.10
2019-05-29T00:58:35.808Z,4.05
2019-05-29T00:59:04.175Z,3.85
2019-05-29T00:59:33.638Z,3.67
2019-05-29T01:00:02.506Z,4.20
2019-05-29T01:00:35.753Z,3.90
2019-05-29T01:01:04.543Z,3.83
2019-05-29T01:01:33.877Z,3.95
2019-05-29T01:02:03.848Z,4.45
2019-05-29T01:02:36.149Z,4.28
2019-05-29T01:03:05.095Z,3.47
2019-05-29T01:03:34.267Z,3.77
2019-05-29T01:04:02.853Z,3.75
2019-05-29T01:04:32.094Z,3.92
2019-05-29T01:05:00.613Z,3.70
2019-05-29T01:05:29.519Z,4.25
2019-05-29T01:05:58.752Z,4.00
2019-05-29T01:06:27.493Z,4.10
2019-05-29T01:06:56.199Z,4.35
2019-05-29T01:07:25.053Z,3.60
2019-05-29T01:07:53.674Z,4.15
2019-05-29T01:08:22.864Z,4.50
2019-05-29T01:08:51.186Z,3.85
2019-05-29T01:09:20.741Z,4.40
2019-05-29T01:09:51.120Z,3.70
2019-05-29T01:10:20.828Z,4.78
2019-05-29T01:10:49.202Z,4.12
2019-05-29T01:11:18.963Z,4.00
2019-05-29T01:11:48.130Z,4.85
2019-05-29T01:12:17.334Z,4.20
2019-05-29T01:12:45.611Z,4.65
2019-05-29T01:13:15.156Z,4.00
2019-05-29T01:13:44.791Z,4.12
2019-05-29T01:14:13.837Z,4.22
2019-05-29T01:14:50.335Z,4.30
2019-05-29T01:15:15.460Z,3.62
2019-05-29T01:15:44.519Z,3.60
2019-05-29T01:16:13.395Z,4.22
2019-05-29T01:16:41.615Z,4.83
2019-05-29T01:17:12.195Z,4.42
2019-05-29T01:17:41.250Z,4.03
2019-05-29T01:18:10.059Z,3.77
2019-05-29T01:18:38.316Z,4.03
2019-05-29T01:19:25.213Z,4.25
2019-05-29T01:19:54.020Z,4.28
2019-05-29T01:20:23.437Z,4.10
2019-05-29T01:20:52.029Z,3.83
2019-05-29T01:21:20.862Z,4.33
2019-05-29T01:21:49.725Z,4.50
2019-05-29T01:22:18.703Z,3.98
2019-05-29T01:22:47.990Z,4.58
2019-05-29T01:23:16.574Z,4.50
2019-05-29T01:23:45.540Z,4.40
2019-05-29T01:24:14.215Z,3.75
2019-05-29T01:24:43.378Z,4.45
2019-05-29T01:25:14.456Z,4.40
2019-05-29T01:25:43.752Z,3.92
2019-05-29T01:26:12.495Z,3.70
2019-05-29T01:26:42.189Z,3.70
2019-05-29T01:27:11.030Z,3.95
2019-05-29T01:27:39.881Z,3.92
2019-05-29T01:28:08.164Z,4.03
2019-05-29T01:28:37.618Z,4.00
2019-05-29T01:29:06.427Z,3.87
2019-05-29T01:29:35.665Z,4.47
2019-05-29T01:30:05.371Z,4.17
2019-05-29T01:30:34.649Z,4.10
2019-05-29T01:31:04.107Z,4.00
2019-05-29T01:31:34.294Z,3.58
2019-05-29T01:32:02.811Z,4.08
2019-05-29T01:32:31.621Z,3.87
2019-05-29T01:33:00.474Z,4.00
2019-05-29T01:33:29.745Z,4.10
2019-05-29T01:33:58.286Z,4.15
2019-05-29T01:34:27.486Z,4.10
2019-05-29T01:34:56.350Z,3.85
2019-05-29T01:35:25.565Z,3.80
2019-05-29T01:35:54.215Z,3.85
2019-05-29T01:36:24.171Z,4.08
2019-05-29T01:36:53.208Z,3.72
2019-05-29T01:37:22.314Z,4.33
2019-05-29T01:37:50.669Z,3.95
2019-05-29T01:38:19.636Z,4.12
2019-05-29T01:38:48.225Z,3.72
2019-05-29T01:39:17.596Z,4.20
2019-05-29T01:39:45.855Z,4.30
2019-05-29T01:40:21.134Z,3.95
2019-05-29T01:40:45.940Z,4.10
2019-05-29T01:41:15.140Z,3.92
2019-05-29T01:41:43.826Z,4.17
2019-05-29T01:42:13.441Z,4.12
2019-05-29T01:42:42.237Z,3.90
2019-05-29T01:43:11.676Z,4.10
2019-05-29T01:43:40.061Z,3.80
2019-05-29T01:44:08.897Z,3.85
2019-05-29T01:44:38.228Z,4.35
2019-05-29T01:45:08.778Z,3.40
2019-05-29T01:45:37.329Z,3.75
2019-05-29T01:46:06.479Z,3.83
2019-05-29T01:46:35.658Z,4.62
2019-05-29T01:47:04.539Z,3.75
2019-05-29T01:47:33.966Z,3.87
2019-05-29T01:48:03.136Z,3.75
2019-05-29T01:48:31.701Z,3.87
2019-05-29T01:49:00.907Z,3.95
2019-05-29T01:49:29.161Z,3.67
2019-05-29T01:49:58.173Z,3.65
2019-05-29T01:50:27.979Z,3.77
2019-05-29T01:50:56.886Z,4.08
2019-05-29T01:51:26.347Z,3.65
2019-05-29T01:51:55.301Z,4.17
2019-05-29T01:52:24.861Z,3.95
2019-05-29T01:52:53.741Z,3.62
2019-05-29T01:53:22.272Z,3.77
2019-05-29T01:53:52.110Z,3.90
2019-05-29T01:54:21.669Z,3.85
2019-05-29T01:54:51.038Z,3.70
2019-05-29T01:55:19.744Z,4.10
2019-05-29T01:55:49.021Z,4.00
2019-05-29T01:56:18.026Z,3.98
2019-05-29T01:56:47.451Z,3.75
2019-05-29T01:57:16.097Z,3.60
2019-05-29T01:57:44.930Z,4.25
2019-05-29T01:58:15.621Z,4.00
2019-05-29T01:58:44.730Z,3.87
2019-05-29T01:59:13.010Z,4.15
2019-05-29T01:59:41.931Z,4.22
2019-05-29T02:00:12.746Z,4.00
2019-05-29T02:00:42.238Z,3.70
2019-05-29T02:01:10.839Z,3.90
2019-05-29T02:01:39.991Z,3.75
2019-05-29T02:02:08.663Z,3.52
2019-05-29T02:02:37.658Z,3.70
2019-05-29T02:03:06.286Z,3.52
2019-05-29T02:03:35.148Z,3.83
2019-05-29T02:04:03.736Z,3.87
2019-05-29T02:04:32.931Z,3.40
2019-05-29T02:05:01.304Z,3.77
2019-05-29T02:05:30.804Z,4.10
2019-05-29T02:06:00.369Z,3.75
2019-05-29T02:06:29.354Z,3.95
2019-05-29T02:06:58.145Z,3.67
2019-05-29T02:07:28.271Z,3.83
2019-05-29T02:07:57.252Z,3.87
2019-05-29T02:08:26.074Z,3.65
2019-05-29T02:08:54.339Z,3.80
2019-05-29T02:09:24.255Z,3.72
2019-05-29T02:09:52.992Z,4.03
2019-05-29T02:10:22.285Z,3.92
2019-05-29T02:10:50.526Z,3.55
2019-05-29T02:11:19.538Z,3.75
2019-05-29T02:11:48.861Z,3.95
2019-05-29T02:12:19.291Z,3.90
2019-05-29T02:12:47.828Z,3.72
2019-05-29T02:13:17.277Z,3.60
2019-05-29T02:13:46.553Z,3.40
2019-05-29T02:14:16.390Z,3.37
2019-05-29T02:14:44.868Z,3.90
2019-05-29T02:15:23.752Z,3.37
2019-05-29T02:15:45.117Z,3.50
2019-05-29T02:16:13.696Z,3.85
2019-05-29T02:16:42.249Z,3.92
2019-05-29T02:17:11.094Z,3.40
2019-05-29T02:17:40.098Z,3.40
2019-05-29T02:18:09.088Z,3.55
2019-05-29T02:18:37.439Z,3.80
2019-05-29T02:19:06.598Z,4.03
2019-05-29T02:19:35.447Z,3.83
2019-05-29T02:20:06.350Z,3.87
2019-05-29T02:20:34.848Z,3.70
2019-05-29T02:21:03.753Z,3.50
2019-05-29T02:21:32.636Z,3.58
2019-05-29T02:22:02.487Z,3.40
2019-05-29T02:22:31.834Z,3.70
2019-05-29T02:23:00.442Z,3.47
2019-05-29T02:23:29.057Z,3.80
2019-05-29T02:23:57.944Z,3.52
2019-05-29T02:24:27.473Z,3.30
2019-05-29T02:24:56.086Z,3.83
2019-05-29T02:25:26.358Z,3.60
2019-05-29T02:25:55.485Z,3.75
2019-05-29T02:26:24.429Z,3.55
2019-05-29T02:26:53.412Z,3.40
2019-05-29T02:27:23.496Z,3.40
2019-05-29T02:27:52.456Z,3.67
2019-05-29T02:28:20.958Z,3.70
2019-05-29T02:28:49.915Z,3.50
2019-05-29T02:29:18.793Z,3.25
2019-05-29T02:29:48.023Z,3.37
2019-05-29T02:30:18.679Z,3.37
2019-05-29T02:30:47.416Z,2.83
2019-05-29T02:31:17.764Z,3.25
2019-05-29T02:31:46.544Z,3.30
2019-05-29T02:32:14.791Z,3.72
2019-05-29T02:32:43.972Z,3.50
2019-05-29T02:33:12.824Z,3.17
2019-05-29T02:33:42.154Z,4.00
2019-05-29T02:34:10.815Z,3.60
2019-05-29T02:34:42.288Z,3.52
2019-05-29T02:35:11.247Z,3.55
2019-05-29T02:35:40.202Z,3.70
2019-05-29T02:36:08.476Z,3.12
2019-05-29T02:36:37.485Z,3.27
2019-05-29T02:37:06.156Z,3.42
2019-05-29T02:37:35.436Z,3.25
2019-05-29T02:38:04.077Z,3.05
2019-05-29T02:38:32.919Z,3.33
2019-05-29T02:39:02.104Z,3.08
2019-05-29T02:39:31.794Z,3.33
2019-05-29T02:40:00.281Z,3.37
2019-05-29T02:40:30.102Z,3.17
2019-05-29T02:40:59.009Z,3.25
2019-05-29T02:41:29.892Z,2.90
2019-05-29T02:41:58.645Z,3.22
2019-05-29T02:42:29.159Z,3.30
2019-05-29T02:42:58.410Z,2.98
2019-05-29T02:43:28.140Z,3.45
2019-05-29T02:43:57.305Z,3.20
2019-05-29T02:44:27.611Z,2.90
2019-05-29T02:44:56.752Z,2.87
2019-05-29T02:45:49.292Z,2.83
2019-05-29T02:45:55.862Z,3.12
2019-05-29T02:46:26.513Z,2.90
2019-05-29T02:46:55.884Z,2.85
2019-05-29T02:47:26.096Z,3.00
2019-05-29T02:47:55.845Z,2.50
2019-05-29T02:48:25.106Z,3.42
2019-05-29T02:48:55.403Z,3.33
2019-05-29T02:49:25.594Z,2.95
2019-05-29T02:49:54.112Z,3.35
2019-05-29T02:50:24.126Z,2.80
2019-05-29T02:50:53.162Z,3.00
2019-05-29T02:51:22.546Z,3.00
2019-05-29T02:51:52.593Z,2.80
2019-05-29T02:52:21.952Z,3.15
2019-05-29T02:52:50.919Z,3.10
2019-05-29T02:53:20.225Z,2.50
2019-05-29T02:53:48.992Z,2.95
2019-05-29T02:54:20.179Z,2.52
2019-05-29T02:54:49.131Z,2.80
2019-05-29T02:55:18.202Z,2.42
2019-05-29T02:55:46.460Z,2.60
2019-05-29T02:56:16.872Z,2.70
2019-05-29T02:56:48.822Z,2.83
2019-05-29T02:57:20.606Z,2.40
2019-05-29T02:57:50.323Z,2.80
2019-05-29T02:58:21.389Z,2.60
2019-05-29T02:58:51.991Z,2.77
2019-05-29T02:59:23.263Z,2.60
2019-05-29T02:59:52.690Z,2.62
2019-05-29T03:00:27.967Z,2.75
2019-05-29T03:00:57.994Z,2.62
2019-05-29T03:01:27.921Z,2.62
2019-05-29T03:01:57.574Z,2.72
2019-05-29T03:02:30.212Z,2.50
2019-05-29T03:02:59.961Z,2.67
2019-05-29T03:03:32.210Z,2.27
2019-05-29T03:03:59.359Z,2.40
2019-05-29T03:04:30.340Z,2.67
2019-05-29T03:04:59.922Z,2.50
2019-05-29T03:05:29.900Z,2.37
2019-05-29T03:05:58.453Z,3.05
2019-05-29T03:06:30.304Z,2.90
2019-05-29T03:06:59.475Z,2.77
2019-05-29T03:07:28.706Z,2.75
2019-05-29T03:07:59.172Z,3.02
2019-05-29T03:08:32.433Z,2.87
2019-05-29T03:09:01.236Z,2.30
2019-05-29T03:09:33.883Z,2.85
2019-05-29T03:10:02.977Z,2.42
2019-05-29T03:10:33.095Z,2.60
2019-05-29T03:11:03.113Z,2.92
2019-05-29T03:11:34.259Z,2.55
2019-05-29T03:12:02.931Z,2.55
2019-05-29T03:12:33.698Z,2.83
2019-05-29T03:13:02.752Z,2.40
2019-05-29T03:13:33.671Z,2.60
2019-05-29T03:14:02.324Z,2.72
2019-05-29T03:14:31.796Z,2.92
2019-05-29T03:15:02.148Z,2.52
2019-05-29T03:15:38.574Z,2.37
2019-05-29T03:16:12.242Z,2.50
2019-05-29T03:16:38.473Z,2.60
2019-05-29T03:17:08.030Z,2.50
2019-05-29T03:17:36.948Z,2.98
2019-05-29T03:18:05.412Z,3.50
2019-05-29T03:18:35.066Z,2.30
2019-05-29T03:19:04.755Z,2.80
2019-05-29T03:19:34.690Z,2.80
2019-05-29T03:20:04.091Z,2.62
2019-05-29T03:20:34.594Z,2.50
2019-05-29T03:21:04.896Z,2.40
2019-05-29T03:21:35.622Z,2.50
2019-05-29T03:22:04.032Z,2.60
2019-05-29T03:22:35.133Z,2.45
2019-05-29T03:23:05.087Z,2.60
2019-05-29T03:23:36.166Z,2.83
2019-05-29T03:24:04.978Z,2.60
2019-05-29T03:24:35.107Z,2.60
2019-05-29T03:25:08.685Z,2.47
2019-05-29T03:25:38.783Z,3.05
2019-05-29T03:26:07.144Z,2.75
2019-05-29T03:26:35.822Z,2.70
2019-05-29T03:27:05.490Z,2.60
2019-05-29T03:27:35.110Z,2.47
2019-05-29T03:28:03.823Z,2.42
2019-05-29T03:28:34.972Z,2.45
2019-05-29T03:29:04.504Z,2.50
2019-05-29T03:29:34.445Z,2.70
2019-05-29T03:30:04.518Z,2.10
2019-05-29T03:30:41.230Z,2.72
2019-05-29T03:31:04.270Z,2.25
2019-05-29T03:31:39.669Z,2.45
2019-05-29T03:32:04.893Z,2.40
2019-05-29T03:32:45.740Z,2.40
2019-05-29T03:33:06.564Z,2.52
2019-05-29T03:33:47.087Z,2.50
2019-05-29T03:34:06.839Z,2.20
2019-05-29T03:34:42.305Z,2.30
2019-05-29T03:35:08.102Z,2.62
2019-05-29T03:35:43.956Z,2.20
2019-05-29T03:36:07.351Z,2.30
2019-05-29T03:36:43.828Z,2.22
2019-05-29T03:37:08.144Z,2.70
2019-05-29T03:37:38.678Z,2.15
2019-05-29T03:38:08.993Z,2.10
2019-05-29T03:38:38.605Z,2.50
2019-05-29T03:39:09.953Z,2.25
2019-05-29T03:39:39.125Z,2.08
2019-05-29T03:40:08.079Z,2.20
2019-05-29T03:40:38.697Z,2.60
2019-05-29T03:41:08.290Z,1.92
2019-05-29T03:41:38.981Z,2.65
2019-05-29T03:42:07.661Z,2.42
2019-05-29T03:42:38.721Z,2.40
2019-05-29T03:43:08.429Z,2.52
2019-05-29T03:43:38.558Z,2.40
2019-05-29T03:44:10.317Z,2.10
2019-05-29T03:44:38.681Z,2.12
2019-05-29T03:45:08.295Z,2.33
2019-05-29T03:45:39.604Z,2.15
2019-05-29T03:46:07.879Z,2.85
2019-05-29T03:46:43.063Z,2.25
2019-05-29T03:47:07.308Z,2.17
2019-05-29T03:47:37.241Z,2.70
2019-05-29T03:48:06.996Z,2.60
2019-05-29T03:48:36.071Z,2.22
2019-05-29T03:49:04.945Z,2.25
2019-05-29T03:49:35.170Z,2.52
2019-05-29T03:50:05.469Z,2.37
2019-05-29T03:50:34.987Z,2.25
2019-05-29T03:51:04.447Z,2.40
2019-05-29T03:51:35.167Z,2.58
2019-05-29T03:52:03.261Z,2.10
2019-05-29T03:52:34.183Z,2.40
2019-05-29T03:53:03.257Z,2.10
2019-05-29T03:53:33.590Z,2.30
2019-05-29T03:54:01.799Z,2.08
2019-05-29T03:54:32.553Z,2.40
2019-05-29T03:55:01.218Z,2.00
2019-05-29T03:55:31.536Z,1.92
2019-05-29T03:56:00.287Z,1.95
2019-05-29T03:56:30.593Z,2.30
2019-05-29T03:57:00.077Z,2.40
2019-05-29T03:57:30.263Z,2.20
2019-05-29T03:57:59.885Z,2.40
2019-05-29T03:58:29.418Z,2.20
2019-05-29T03:58:59.574Z,2.35
2019-05-29T03:59:30.674Z,2.27
2019-05-29T03:59:59.262Z,2.22
2019-05-29T04:00:34.199Z,2.00
2019-05-29T04:00:58.713Z,2.35
2019-05-29T04:01:29.120Z,2.20
2019-05-29T04:01:57.634Z,2.27
2019-05-29T04:02:26.788Z,2.15
2019-05-29T04:02:55.468Z,2.42
2019-05-29T04:03:24.657Z,2.65
2019-05-29T04:03:52.949Z,2.58
2019-05-29T04:04:21.651Z,2.15
2019-05-29T04:04:50.690Z,2.42
2019-05-29T04:05:19.615Z,2.52
2019-05-29T04:05:47.875Z,4.55
2019-05-29T04:06:16.814Z,3.95
2019-05-29T04:06:47.397Z,3.15
2019-05-29T04:07:15.717Z,2.50
2019-05-29T04:07:44.383Z,2.87
2019-05-29T04:08:13.249Z,2.62
2019-05-29T04:08:42.232Z,2.10
2019-05-29T04:09:11.146Z,2.75
2019-05-29T04:09:39.559Z,2.30
2019-05-29T04:10:08.645Z,2.30
2019-05-29T04:10:39.476Z,2.40
2019-05-29T04:11:08.033Z,2.52
2019-05-29T04:11:37.845Z,2.72
2019-05-29T04:12:07.048Z,2.42
2019-05-29T04:12:37.779Z,2.20
2019-05-29T04:13:06.780Z,2.45
2019-05-29T04:13:36.273Z,2.52
2019-05-29T04:14:06.799Z,2.37
2019-05-29T04:14:37.731Z,2.62
2019-05-29T04:15:08.110Z,2.45
2019-05-29T04:15:38.636Z,2.40
2019-05-29T04:16:07.707Z,2.83
2019-05-29T04:16:58.133Z,2.37
2019-05-29T04:17:08.108Z,2.52
2019-05-29T04:17:37.914Z,2.37
2019-05-29T04:18:08.539Z,2.60
2019-05-29T04:18:38.096Z,2.70
2019-05-29T04:19:07.601Z,2.37
2019-05-29T04:19:38.392Z,2.70
2019-05-29T04:20:08.336Z,2.55
2019-05-29T04:20:38.724Z,2.62
2019-05-29T04:21:07.633Z,2.55
2019-05-29T04:21:38.715Z,2.50
2019-05-29T04:22:09.933Z,2.80
2019-05-29T04:22:41.944Z,2.80
2019-05-29T04:23:10.894Z,2.62
2019-05-29T04:23:39.357Z,2.98
2019-05-29T04:24:08.285Z,3.02
2019-05-29T04:24:39.697Z,2.65
2019-05-29T04:25:08.553Z,2.92
2019-05-29T04:25:41.989Z,2.55
2019-05-29T04:26:08.231Z,2.80
2019-05-29T04:26:41.846Z,2.85
2019-05-29T04:27:13.871Z,2.67
2019-05-29T04:27:42.986Z,3.00
2019-05-29T04:28:11.650Z,3.30
2019-05-29T04:28:40.803Z,2.67
2019-05-29T04:29:11.884Z,2.92
2019-05-29T04:29:42.255Z,2.50
2019-05-29T04:30:11.670Z,3.30
2019-05-29T04:30:42.073Z,2.75
2019-05-29T04:31:10.791Z,2.75
2019-05-29T04:31:40.511Z,2.75
2019-05-29T04:32:09.540Z,3.25
2019-05-29T04:32:38.694Z,2.95
2019-05-29T04:33:08.022Z,2.50
2019-05-29T04:33:39.669Z,3.10
2019-05-29T04:34:08.265Z,3.05
2019-05-29T04:34:38.002Z,2.77
2019-05-29T04:35:08.031Z,2.60
2019-05-29T04:35:37.023Z,2.90
2019-05-29T04:36:06.389Z,2.70
2019-05-29T04:36:36.905Z,2.60
2019-05-29T04:37:07.414Z,2.55
2019-05-29T04:37:37.048Z,2.90
2019-05-29T04:38:07.043Z,2.70
2019-05-29T04:38:38.455Z,2.72
2019-05-29T04:39:08.001Z,3.00
2019-05-29T04:39:36.957Z,2.67
2019-05-29T04:40:08.032Z,2.70
2019-05-29T04:40:39.358Z,2.35
2019-05-29T04:41:08.879Z,2.60
2019-05-29T04:41:38.841Z,2.77
2019-05-29T04:42:09.434Z,3.00
2019-05-29T04:42:40.010Z,2.40
2019-05-29T04:43:09.681Z,2.65
2019-05-29T04:43:39.884Z,3.00
2019-05-29T04:44:09.697Z,3.27
2019-05-29T04:44:41.144Z,2.70
2019-05-29T04:45:10.114Z,2.58
2019-05-29T04:45:40.067Z,2.60
2019-05-29T04:46:09.229Z,2.92
2019-05-29T04:46:39.098Z,2.87
2019-05-29T04:47:12.170Z,2.42
2019-05-29T04:47:40.229Z,3.05
2019-05-29T04:48:09.120Z,2.80
2019-05-29T04:48:40.234Z,3.00
2019-05-29T04:49:08.658Z,3.00
2019-05-29T04:49:37.968Z,2.45
2019-05-29T04:50:08.127Z,2.72
2019-05-29T04:50:38.700Z,2.60
2019-05-29T04:51:07.824Z,3.12
2019-05-29T04:51:37.333Z,2.42
2019-05-29T04:52:06.805Z,2.65
2019-05-29T04:52:37.870Z,2.70
2019-05-29T04:53:07.860Z,2.62
2019-05-29T04:53:37.779Z,2.72
2019-05-29T04:54:08.070Z,2.80
2019-05-29T04:54:37.666Z,2.92
2019-05-29T04:55:06.640Z,2.70
2019-05-29T04:55:34.912Z,3.05
2019-05-29T04:56:03.825Z,2.95
2019-05-29T04:56:32.961Z,2.50
2019-05-29T04:57:01.846Z,2.70
2019-05-29T04:57:30.832Z,2.50
2019-05-29T04:57:59.637Z,2.50
2019-05-29T04:58:28.876Z,2.60
2019-05-29T04:58:58.447Z,2.67
2019-05-29T04:59:28.795Z,2.62
2019-05-29T04:59:59.347Z,2.65
2019-05-29T05:00:29.018Z,2.75
2019-05-29T05:00:59.560Z,2.47
2019-05-29T05:01:28.995Z,2.80
2019-05-29T05:01:58.468Z,2.20
2019-05-29T05:02:27.489Z,2.95
2019-05-29T05:02:56.325Z,2.27
2019-05-29T05:03:25.197Z,2.55
2019-05-29T05:03:54.813Z,2.27
2019-05-29T05:04:23.497Z,2.60
2019-05-29T05:04:52.726Z,2.40
2019-05-29T05:05:21.098Z,2.10
2019-05-29T05:05:50.058Z,2.52
2019-05-29T05:06:19.007Z,2.30
2019-05-29T05:06:47.918Z,2.27
2019-05-29T05:07:16.720Z,2.40
2019-05-29T05:07:45.659Z,2.27
2019-05-29T05:08:15.032Z,2.47
2019-05-29T05:08:44.987Z,2.22
2019-05-29T05:09:13.816Z,2.47
2019-05-29T05:09:43.258Z,2.15
2019-05-29T05:10:12.386Z,2.10
2019-05-29T05:10:42.317Z,2.10
2019-05-29T05:11:11.190Z,2.00
2019-05-29T05:11:40.721Z,2.20
2019-05-29T05:12:10.287Z,2.02
2019-05-29T05:12:40.060Z,2.10
2019-05-29T05:13:08.934Z,1.90
2019-05-29T05:13:38.117Z,1.95
2019-05-29T05:14:07.570Z,2.17
2019-05-29T05:14:37.826Z,1.90
2019-05-29T05:15:07.768Z,2.10
2019-05-29T05:15:40.153Z,1.80
2019-05-29T05:16:11.899Z,2.12
2019-05-29T05:16:41.591Z,2.10
2019-05-29T05:17:24.977Z,2.00
2019-05-29T05:17:41.398Z,1.92
2019-05-29T05:18:10.446Z,1.80
2019-05-29T05:18:40.274Z,1.95
2019-05-29T05:19:09.026Z,1.60
2019-05-29T05:19:38.328Z,1.90
2019-05-29T05:20:07.310Z,1.90
2019-05-29T05:20:36.431Z,1.80
2019-05-29T05:21:05.054Z,1.75
2019-05-29T05:21:34.082Z,2.10
2019-05-29T05:22:03.558Z,1.72
2019-05-29T05:22:32.555Z,1.80
2019-05-29T05:23:01.499Z,1.60
2019-05-29T05:23:30.426Z,1.90
2019-05-29T05:23:59.245Z,1.90
2019-05-29T05:24:30.353Z,1.75
2019-05-29T05:25:00.012Z,1.65
2019-05-29T05:25:29.936Z,1.90
2019-05-29T05:25:59.278Z,1.50
2019-05-29T05:26:30.403Z,1.57
2019-05-29T05:26:59.686Z,1.70
2019-05-29T05:27:30.120Z,1.60
2019-05-29T05:27:59.072Z,1.75
2019-05-29T05:28:28.360Z,1.62
2019-05-29T05:28:58.446Z,1.57
2019-05-29T05:29:27.400Z,1.75
2019-05-29T05:29:56.306Z,1.70
2019-05-29T05:30:26.249Z,1.70
2019-05-29T05:30:56.337Z,1.67
2019-05-29T05:31:25.187Z,1.42
2019-05-29T05:31:53.987Z,1.75
2019-05-29T05:32:24.267Z,1.60
2019-05-29T05:32:52.825Z,1.57
2019-05-29T05:33:21.774Z,1.67
2019-05-29T05:33:51.106Z,1.70
2019-05-29T05:34:23.026Z,1.50
2019-05-29T05:34:51.598Z,1.65
2019-05-29T05:35:20.938Z,1.72
2019-05-29T05:35:50.198Z,1.70
2019-05-29T05:36:19.678Z,1.80
2019-05-29T05:36:48.107Z,1.90
2019-05-29T05:37:17.064Z,1.70
2019-05-29T05:37:46.067Z,1.50
2019-05-29T05:38:16.227Z,1.60
2019-05-29T05:38:44.471Z,1.65
2019-05-29T05:39:13.287Z,1.70
2019-05-29T05:39:42.418Z,1.60
2019-05-29T05:40:11.224Z,1.60
2019-05-29T05:40:41.859Z,1.45
2019-05-29T05:41:10.360Z,1.47
2019-05-29T05:41:41.083Z,1.50
2019-05-29T05:42:10.716Z,1.60
2019-05-29T05:42:39.369Z,1.40
2019-05-29T05:43:23.086Z,1.62
2019-05-29T05:43:39.113Z,1.47
2019-05-29T05:44:08.365Z,1.50
2019-05-29T05:44:37.152Z,1.52
2019-05-29T05:45:07.734Z,1.60
2019-05-29T05:45:37.119Z,1.65
2019-05-29T05:46:06.008Z,1.62
2019-05-29T05:46:34.977Z,1.62
2019-05-29T05:47:04.223Z,1.50
2019-05-29T05:47:45.082Z,1.67
2019-05-29T05:48:03.583Z,1.70
2019-05-29T05:48:32.937Z,1.80
2019-05-29T05:49:02.018Z,1.42
2019-05-29T05:49:31.512Z,1.50
2019-05-29T05:50:00.324Z,1.60
2019-05-29T05:50:28.797Z,1.62
2019-05-29T05:50:58.054Z,1.40
2019-05-29T05:51:26.972Z,1.27
2019-05-29T05:51:55.825Z,1.60
2019-05-29T05:52:24.500Z,1.80
2019-05-29T05:52:53.463Z,1.40
2019-05-29T05:53:23.062Z,1.40
2019-05-29T05:53:51.912Z,1.40
2019-05-29T05:54:20.165Z,1.50
2019-05-29T05:54:48.757Z,1.70
2019-05-29T05:55:18.145Z,1.40
2019-05-29T05:55:47.683Z,1.50
2019-05-29T05:56:16.176Z,1.50
2019-05-29T05:56:45.481Z,1.55
2019-05-29T05:57:14.456Z,1.50
2019-05-29T05:57:43.665Z,1.30
2019-05-29T05:58:12.567Z,1.40
2019-05-29T05:58:42.462Z,1.40
2019-05-29T05:59:11.616Z,1.30
2019-05-29T05:59:40.486Z,1.40
2019-05-29T06:00:10.556Z,1.40
2019-05-29T06:00:39.926Z,1.10
2019-05-29T06:01:08.659Z,1.47
2019-05-29T06:01:37.996Z,1.30
2019-05-29T06:02:06.679Z,1.42
2019-05-29T06:02:36.020Z,1.20
2019-05-29T06:03:04.926Z,1.40
2019-05-29T06:03:34.024Z,1.35
2019-05-29T06:04:02.440Z,1.15
2019-05-29T06:04:31.830Z,1.15
2019-05-29T06:05:00.662Z,1.07
2019-05-29T06:05:29.798Z,1.35
2019-05-29T06:05:58.394Z,1.40
2019-05-29T06:06:27.254Z,1.10
2019-05-29T06:06:55.812Z,1.20
2019-05-29T06:07:25.059Z,1.40
2019-05-29T06:07:53.644Z,1.12
2019-05-29T06:08:22.466Z,1.32
2019-05-29T06:08:51.317Z,1.40
2019-05-29T06:09:20.196Z,1.20
2019-05-29T06:09:48.717Z,1.15
2019-05-29T06:10:17.806Z,1.22
2019-05-29T06:10:46.616Z,1.22
2019-05-29T06:11:15.344Z,1.02
2019-05-29T06:11:44.063Z,1.10
2019-05-29T06:12:12.944Z,1.20
2019-05-29T06:12:42.853Z,1.42
2019-05-29T06:13:12.617Z,1.07
2019-05-29T06:13:42.558Z,1.10
2019-05-29T06:14:11.814Z,1.20
2019-05-29T06:14:42.733Z,1.20
2019-05-29T06:15:11.532Z,1.27
2019-05-29T06:15:40.659Z,1.30
2019-05-29T06:16:09.557Z,1.40
2019-05-29T06:16:38.775Z,1.20
2019-05-29T06:17:07.640Z,1.30
2019-05-29T06:17:38.747Z,1.25
2019-05-29T06:18:20.674Z,1.20
2019-05-29T06:18:40.638Z,1.20
2019-05-29T06:19:09.731Z,1.20
2019-05-29T06:19:41.193Z,1.35
2019-05-29T06:20:10.236Z,1.45
2019-05-29T06:20:39.442Z,1.35
2019-05-29T06:21:08.573Z,1.20
2019-05-29T06:21:38.814Z,1.32
2019-05-29T06:22:09.822Z,1.60
2019-05-29T06:22:39.092Z,1.60
2019-05-29T06:23:08.646Z,1.40
2019-05-29T06:23:37.141Z,1.50
2019-05-29T06:24:05.986Z,1.52
2019-05-29T06:24:35.083Z,1.50
2019-05-29T06:25:08.809Z,1.17
2019-05-29T06:25:39.967Z,1.60
2019-05-29T06:26:07.358Z,1.60
2019-05-29T06:26:36.798Z,1.57
2019-05-29T06:27:06.837Z,1.50
2019-05-29T06:27:35.335Z,1.45
2019-05-29T06:28:05.636Z,1.50
2019-05-29T06:28:35.172Z,1.62
2019-05-29T06:29:04.562Z,1.67
2019-05-29T06:29:35.138Z,1.70
2019-05-29T06:30:06.413Z,1.70
2019-05-29T06:30:39.310Z,1.80
2019-05-29T06:31:08.798Z,1.32
2019-05-29T06:31:39.252Z,1.50
2019-05-29T06:32:09.196Z,1.55
2019-05-29T06:32:39.486Z,1.50